sensor_id;sensor_type;location;lat;lon;timestamp;temperature;humidity
981;DHT22;479;53.514;9.994;2023-11-21T00:02:07;9.70;99.90
981;DHT22;479;53.514;9.994;2023-11-21T00:04:34;9.70;99.90
981;DHT22;479;53.514;9.994;2023-11-21T00:07:02;9.60;99.90
981;DHT22;479;53.514;9.994;2023-11-21T00:09:31;9.50;99.90
981;DHT22;479;53.514;9.994;2023-11-21T00:11:58;9.50;99.90
981;DHT22;479;53.514;9.994;2023-11-21T00:14:25;9.40;99.90
981;DHT22;479;53.514;9.994;2023-11-21T00:16:52;9.40;99.90
981;DHT22;479;53.514;9.994;2023-11-21T00:19:19;9.40;99.90
981;DHT22;479;53.514;9.994;2023-11-21T00:21:46;9.30;99.90
981;DHT22;479;53.514;9.994;2023-11-21T00:24:14;9.30;99.90
981;DHT22;479;53.514;9.994;2023-11-21T00:26:41;9.30;99.90
981;DHT22;479;53.514;9.994;2023-11-21T00:29:08;9.30;99.90
981;DHT22;479;53.514;9.994;2023-11-21T00:31:35;9.20;99.90
981;DHT22;479;53.514;9.994;2023-11-21T00:34:02;9.10;99.90
981;DHT22;479;53.514;9.994;2023-11-21T00:36:30;9.10;99.90
981;DHT22;479;53.514;9.994;2023-11-21T00:38:57;9.00;99.90
981;DHT22;479;53.514;9.994;2023-11-21T00:41:26;8.90;99.90
981;DHT22;479;53.514;9.994;2023-11-21T00:43:53;8.90;99.90
981;DHT22;479;53.514;9.994;2023-11-21T00:46:21;8.90;99.90
981;DHT22;479;53.514;9.994;2023-11-21T00:48:49;8.90;99.90
981;DHT22;479;53.514;9.994;2023-11-21T00:51:16;8.80;99.90
981;DHT22;479;53.514;9.994;2023-11-21T00:53:43;8.70;99.90
981;DHT22;479;53.514;9.994;2023-11-21T00:56:11;8.70;99.90
981;DHT22;479;53.514;9.994;2023-11-21T00:58:40;8.60;99.90
981;DHT22;479;53.514;9.994;2023-11-21T01:01:09;8.60;99.90
981;DHT22;479;53.514;9.994;2023-11-21T01:03:37;8.60;99.90
981;DHT22;479;53.514;9.994;2023-11-21T01:06:04;8.60;99.90
981;DHT22;479;53.514;9.994;2023-11-21T01:08:33;8.60;99.90
981;DHT22;479;53.514;9.994;2023-11-21T01:11:00;8.60;99.90
981;DHT22;479;53.514;9.994;2023-11-21T01:13:27;8.60;99.90
981;DHT22;479;53.514;9.994;2023-11-21T01:15:56;8.60;99.90
981;DHT22;479;53.514;9.994;2023-11-21T01:18:23;8.60;99.90
981;DHT22;479;53.514;9.994;2023-11-21T01:20:51;8.60;99.90
981;DHT22;479;53.514;9.994;2023-11-21T01:23:18;8.50;99.90
981;DHT22;479;53.514;9.994;2023-11-21T01:25:45;8.50;99.90
981;DHT22;479;53.514;9.994;2023-11-21T01:28:12;8.30;99.90
981;DHT22;479;53.514;9.994;2023-11-21T01:30:39;8.30;99.90
981;DHT22;479;53.514;9.994;2023-11-21T01:33:07;8.30;99.90
981;DHT22;479;53.514;9.994;2023-11-21T01:35:34;8.20;99.90
981;DHT22;479;53.514;9.994;2023-11-21T01:38:01;8.10;99.90
981;DHT22;479;53.514;9.994;2023-11-21T01:40:29;8.10;99.90
981;DHT22;479;53.514;9.994;2023-11-21T01:42:56;8.10;99.90
981;DHT22;479;53.514;9.994;2023-11-21T01:45:24;8.10;99.90
981;DHT22;479;53.514;9.994;2023-11-21T01:47:52;8.10;99.90
981;DHT22;479;53.514;9.994;2023-11-21T01:50:21;8.10;99.90
981;DHT22;479;53.514;9.994;2023-11-21T01:52:48;8.00;99.90
981;DHT22;479;53.514;9.994;2023-11-21T01:55:17;8.00;99.90
981;DHT22;479;53.514;9.994;2023-11-21T01:57:45;8.00;99.90
981;DHT22;479;53.514;9.994;2023-11-21T02:00:13;8.00;99.90
981;DHT22;479;53.514;9.994;2023-11-21T02:02:45;8.00;99.90
981;DHT22;479;53.514;9.994;2023-11-21T02:05:14;8.00;99.90
981;DHT22;479;53.514;9.994;2023-11-21T02:07:45;8.00;99.90
981;DHT22;479;53.514;9.994;2023-11-21T02:10:14;8.00;99.90
981;DHT22;479;53.514;9.994;2023-11-21T02:12:41;8.00;99.90
981;DHT22;479;53.514;9.994;2023-11-21T02:15:08;8.00;99.90
981;DHT22;479;53.514;9.994;2023-11-21T02:17:41;8.00;99.90
981;DHT22;479;53.514;9.994;2023-11-21T02:20:10;8.00;99.90
981;DHT22;479;53.514;9.994;2023-11-21T02:25:25;8.00;99.90
981;DHT22;479;53.514;9.994;2023-11-21T02:27:53;8.00;99.90
981;DHT22;479;53.514;9.994;2023-11-21T02:30:20;8.00;99.90
981;DHT22;479;53.514;9.994;2023-11-21T02:32:47;8.00;99.90
981;DHT22;479;53.514;9.994;2023-11-21T02:35:15;7.90;99.90
981;DHT22;479;53.514;9.994;2023-11-21T02:37:42;8.00;99.90
981;DHT22;479;53.514;9.994;2023-11-21T02:40:10;7.90;99.90
981;DHT22;479;53.514;9.994;2023-11-21T02:42:39;8.00;99.90
981;DHT22;479;53.514;9.994;2023-11-21T02:45:07;7.90;99.90
981;DHT22;479;53.514;9.994;2023-11-21T02:47:34;8.00;99.90
981;DHT22;479;53.514;9.994;2023-11-21T02:50:02;7.90;99.90
981;DHT22;479;53.514;9.994;2023-11-21T02:52:29;7.90;99.90
981;DHT22;479;53.514;9.994;2023-11-21T02:54:58;7.90;99.90
981;DHT22;479;53.514;9.994;2023-11-21T02:57:26;7.90;99.90
981;DHT22;479;53.514;9.994;2023-11-21T02:59:54;8.00;99.90
981;DHT22;479;53.514;9.994;2023-11-21T03:02:21;7.90;99.90
981;DHT22;479;53.514;9.994;2023-11-21T03:04:48;7.90;99.90
981;DHT22;479;53.514;9.994;2023-11-21T03:07:15;7.90;99.90
981;DHT22;479;53.514;9.994;2023-11-21T03:09:42;7.90;99.90
981;DHT22;479;53.514;9.994;2023-11-21T03:12:10;7.90;99.90
981;DHT22;479;53.514;9.994;2023-11-21T03:14:37;7.90;99.90
981;DHT22;479;53.514;9.994;2023-11-21T03:17:06;7.90;99.90
981;DHT22;479;53.514;9.994;2023-11-21T03:19:33;7.90;99.90
981;DHT22;479;53.514;9.994;2023-11-21T03:22:00;7.80;99.90
981;DHT22;479;53.514;9.994;2023-11-21T03:24:27;7.80;99.90
981;DHT22;479;53.514;9.994;2023-11-21T03:26:54;7.80;99.90
981;DHT22;479;53.514;9.994;2023-11-21T03:29:21;7.80;99.90
981;DHT22;479;53.514;9.994;2023-11-21T03:31:48;7.90;99.90
981;DHT22;479;53.514;9.994;2023-11-21T03:34:22;7.90;99.90
981;DHT22;479;53.514;9.994;2023-11-21T03:36:49;7.80;99.90
981;DHT22;479;53.514;9.994;2023-11-21T03:39:16;7.80;99.90
981;DHT22;479;53.514;9.994;2023-11-21T03:41:43;7.80;99.90
981;DHT22;479;53.514;9.994;2023-11-21T03:44:10;7.70;99.90
981;DHT22;479;53.514;9.994;2023-11-21T03:46:37;7.70;99.90
981;DHT22;479;53.514;9.994;2023-11-21T03:49:04;7.70;99.90
981;DHT22;479;53.514;9.994;2023-11-21T03:51:33;7.70;99.90
981;DHT22;479;53.514;9.994;2023-11-21T03:54:02;7.70;99.90
981;DHT22;479;53.514;9.994;2023-11-21T03:56:30;7.70;99.90
981;DHT22;479;53.514;9.994;2023-11-21T03:58:56;7.80;99.90
981;DHT22;479;53.514;9.994;2023-11-21T04:01:24;7.80;99.90
981;DHT22;479;53.514;9.994;2023-11-21T04:03:51;7.70;99.90
981;DHT22;479;53.514;9.994;2023-11-21T04:06:18;7.70;99.90
981;DHT22;479;53.514;9.994;2023-11-21T04:08:46;7.70;99.90
981;DHT22;479;53.514;9.994;2023-11-21T04:11:13;7.70;99.90
981;DHT22;479;53.514;9.994;2023-11-21T04:13:41;7.70;99.90
981;DHT22;479;53.514;9.994;2023-11-21T04:16:09;7.70;99.90
981;DHT22;479;53.514;9.994;2023-11-21T04:18:36;7.70;99.90
981;DHT22;479;53.514;9.994;2023-11-21T04:21:04;7.70;99.90
981;DHT22;479;53.514;9.994;2023-11-21T04:23:31;7.70;99.90
981;DHT22;479;53.514;9.994;2023-11-21T04:26:00;7.70;99.90
981;DHT22;479;53.514;9.994;2023-11-21T04:28:27;7.70;99.90
981;DHT22;479;53.514;9.994;2023-11-21T04:30:54;7.80;99.90
981;DHT22;479;53.514;9.994;2023-11-21T04:33:21;7.70;99.90
981;DHT22;479;53.514;9.994;2023-11-21T04:35:48;7.70;99.90
981;DHT22;479;53.514;9.994;2023-11-21T04:38:15;7.70;99.90
981;DHT22;479;53.514;9.994;2023-11-21T04:40:42;7.70;99.90
981;DHT22;479;53.514;9.994;2023-11-21T04:43:11;7.70;99.90
981;DHT22;479;53.514;9.994;2023-11-21T04:45:38;7.70;99.90
981;DHT22;479;53.514;9.994;2023-11-21T04:48:06;7.70;99.90
981;DHT22;479;53.514;9.994;2023-11-21T04:50:33;7.70;99.90
981;DHT22;479;53.514;9.994;2023-11-21T04:53:02;7.70;99.90
981;DHT22;479;53.514;9.994;2023-11-21T04:55:30;7.70;99.90
981;DHT22;479;53.514;9.994;2023-11-21T04:57:57;7.70;99.90
981;DHT22;479;53.514;9.994;2023-11-21T05:00:25;7.70;99.90
981;DHT22;479;53.514;9.994;2023-11-21T05:02:52;7.70;99.90
981;DHT22;479;53.514;9.994;2023-11-21T05:05:19;7.70;99.90
981;DHT22;479;53.514;9.994;2023-11-21T05:07:46;7.70;99.90
981;DHT22;479;53.514;9.994;2023-11-21T05:10:13;7.70;99.90
981;DHT22;479;53.514;9.994;2023-11-21T05:12:40;7.60;99.90
981;DHT22;479;53.514;9.994;2023-11-21T05:15:08;7.60;99.90
981;DHT22;479;53.514;9.994;2023-11-21T05:17:38;7.60;99.90
981;DHT22;479;53.514;9.994;2023-11-21T05:20:08;7.60;99.90
981;DHT22;479;53.514;9.994;2023-11-21T05:22:35;7.70;99.90
981;DHT22;479;53.514;9.994;2023-11-21T05:25:03;7.60;99.90
981;DHT22;479;53.514;9.994;2023-11-21T05:27:30;7.60;99.90
981;DHT22;479;53.514;9.994;2023-11-21T05:29:57;7.70;99.90
981;DHT22;479;53.514;9.994;2023-11-21T05:32:24;7.70;99.90
981;DHT22;479;53.514;9.994;2023-11-21T05:34:53;7.70;99.90
981;DHT22;479;53.514;9.994;2023-11-21T05:37:20;7.60;99.90
981;DHT22;479;53.514;9.994;2023-11-21T05:39:47;7.60;99.90
981;DHT22;479;53.514;9.994;2023-11-21T05:42:13;7.60;99.90
981;DHT22;479;53.514;9.994;2023-11-21T05:44:41;7.60;99.90
981;DHT22;479;53.514;9.994;2023-11-21T05:47:08;7.60;99.90
981;DHT22;479;53.514;9.994;2023-11-21T05:49:35;7.60;99.90
981;DHT22;479;53.514;9.994;2023-11-21T05:52:04;7.60;99.90
981;DHT22;479;53.514;9.994;2023-11-21T05:54:32;7.60;99.90
981;DHT22;479;53.514;9.994;2023-11-21T05:56:59;7.60;99.90
981;DHT22;479;53.514;9.994;2023-11-21T05:59:26;7.60;99.90
981;DHT22;479;53.514;9.994;2023-11-21T06:01:53;7.60;99.90
981;DHT22;479;53.514;9.994;2023-11-21T06:04:20;7.60;99.90
981;DHT22;479;53.514;9.994;2023-11-21T06:06:50;7.60;99.90
981;DHT22;479;53.514;9.994;2023-11-21T06:09:19;7.60;99.90
981;DHT22;479;53.514;9.994;2023-11-21T06:11:46;7.60;99.90
981;DHT22;479;53.514;9.994;2023-11-21T06:14:12;7.60;99.90
981;DHT22;479;53.514;9.994;2023-11-21T06:16:43;7.60;99.90
981;DHT22;479;53.514;9.994;2023-11-21T06:19:11;7.60;99.90
981;DHT22;479;53.514;9.994;2023-11-21T06:21:38;7.70;99.90
981;DHT22;479;53.514;9.994;2023-11-21T06:24:05;7.70;99.90
981;DHT22;479;53.514;9.994;2023-11-21T06:26:34;7.70;99.90
981;DHT22;479;53.514;9.994;2023-11-21T06:29:00;7.70;99.90
981;DHT22;479;53.514;9.994;2023-11-21T06:31:29;7.70;99.90
981;DHT22;479;53.514;9.994;2023-11-21T06:33:57;7.70;99.90
981;DHT22;479;53.514;9.994;2023-11-21T06:36:25;7.70;99.90
981;DHT22;479;53.514;9.994;2023-11-21T06:38:53;7.70;99.90
981;DHT22;479;53.514;9.994;2023-11-21T06:41:20;7.70;99.90
981;DHT22;479;53.514;9.994;2023-11-21T06:43:49;7.70;99.90
981;DHT22;479;53.514;9.994;2023-11-21T06:46:16;7.70;99.90
981;DHT22;479;53.514;9.994;2023-11-21T06:48:44;7.70;99.90
981;DHT22;479;53.514;9.994;2023-11-21T06:51:11;7.70;99.90
981;DHT22;479;53.514;9.994;2023-11-21T06:53:38;7.70;99.90
981;DHT22;479;53.514;9.994;2023-11-21T06:56:15;7.70;99.90
981;DHT22;479;53.514;9.994;2023-11-21T06:58:42;7.70;99.90
981;DHT22;479;53.514;9.994;2023-11-21T07:01:12;7.70;99.90
981;DHT22;479;53.514;9.994;2023-11-21T07:03:40;7.70;99.90
981;DHT22;479;53.514;9.994;2023-11-21T07:06:08;7.70;99.90
981;DHT22;479;53.514;9.994;2023-11-21T07:08:35;7.70;99.90
981;DHT22;479;53.514;9.994;2023-11-21T07:11:02;7.70;99.90
981;DHT22;479;53.514;9.994;2023-11-21T07:13:29;7.70;99.90
981;DHT22;479;53.514;9.994;2023-11-21T07:15:57;7.70;99.90
981;DHT22;479;53.514;9.994;2023-11-21T07:18:25;7.70;99.90
981;DHT22;479;53.514;9.994;2023-11-21T07:20:53;7.70;99.90
981;DHT22;479;53.514;9.994;2023-11-21T07:23:19;7.70;99.90
981;DHT22;479;53.514;9.994;2023-11-21T07:25:48;7.80;99.90
981;DHT22;479;53.514;9.994;2023-11-21T07:28:15;7.70;99.90
981;DHT22;479;53.514;9.994;2023-11-21T07:30:42;7.80;99.90
981;DHT22;479;53.514;9.994;2023-11-21T07:33:09;7.80;99.90
981;DHT22;479;53.514;9.994;2023-11-21T07:35:38;7.90;99.90
981;DHT22;479;53.514;9.994;2023-11-21T07:38:05;7.90;99.90
981;DHT22;479;53.514;9.994;2023-11-21T07:40:35;7.90;99.90
981;DHT22;479;53.514;9.994;2023-11-21T07:43:02;7.90;99.90
981;DHT22;479;53.514;9.994;2023-11-21T07:45:29;7.90;99.90
981;DHT22;479;53.514;9.994;2023-11-21T07:47:56;7.90;99.90
981;DHT22;479;53.514;9.994;2023-11-21T07:50:23;7.90;99.90
981;DHT22;479;53.514;9.994;2023-11-21T07:52:51;8.00;99.90
981;DHT22;479;53.514;9.994;2023-11-21T07:55:20;8.00;99.90
981;DHT22;479;53.514;9.994;2023-11-21T07:57:47;8.10;99.90
981;DHT22;479;53.514;9.994;2023-11-21T08:00:14;8.20;99.90
981;DHT22;479;53.514;9.994;2023-11-21T08:02:41;8.20;99.90
981;DHT22;479;53.514;9.994;2023-11-21T08:05:11;8.20;99.90
981;DHT22;479;53.514;9.994;2023-11-21T08:07:39;8.20;99.90
981;DHT22;479;53.514;9.994;2023-11-21T08:10:08;8.20;99.90
981;DHT22;479;53.514;9.994;2023-11-21T08:12:37;8.20;99.90
981;DHT22;479;53.514;9.994;2023-11-21T08:15:06;8.20;99.90
981;DHT22;479;53.514;9.994;2023-11-21T08:17:33;8.20;99.90
981;DHT22;479;53.514;9.994;2023-11-21T08:20:01;8.10;99.90
981;DHT22;479;53.514;9.994;2023-11-21T08:22:29;8.10;99.90
981;DHT22;479;53.514;9.994;2023-11-21T08:24:57;8.10;99.90
981;DHT22;479;53.514;9.994;2023-11-21T08:27:26;8.20;99.90
981;DHT22;479;53.514;9.994;2023-11-21T08:29:53;8.20;99.90
981;DHT22;479;53.514;9.994;2023-11-21T08:32:20;8.30;99.90
981;DHT22;479;53.514;9.994;2023-11-21T08:34:47;8.40;99.90
981;DHT22;479;53.514;9.994;2023-11-21T08:37:16;8.40;99.90
981;DHT22;479;53.514;9.994;2023-11-21T08:39:45;8.50;99.90
981;DHT22;479;53.514;9.994;2023-11-21T08:42:15;8.50;99.90
981;DHT22;479;53.514;9.994;2023-11-21T08:44:45;8.70;99.90
981;DHT22;479;53.514;9.994;2023-11-21T08:47:12;8.70;99.90
981;DHT22;479;53.514;9.994;2023-11-21T08:49:40;8.70;99.90
981;DHT22;479;53.514;9.994;2023-11-21T08:52:06;8.60;99.90
981;DHT22;479;53.514;9.994;2023-11-21T08:54:33;8.60;99.90
981;DHT22;479;53.514;9.994;2023-11-21T08:57:01;8.50;99.90
981;DHT22;479;53.514;9.994;2023-11-21T08:59:28;8.40;99.90
981;DHT22;479;53.514;9.994;2023-11-21T09:01:56;8.40;99.90
981;DHT22;479;53.514;9.994;2023-11-21T09:04:23;8.30;99.90
981;DHT22;479;53.514;9.994;2023-11-21T09:06:50;8.30;99.90
981;DHT22;479;53.514;9.994;2023-11-21T09:09:17;8.30;99.90
981;DHT22;479;53.514;9.994;2023-11-21T09:11:45;8.20;99.90
981;DHT22;479;53.514;9.994;2023-11-21T09:14:14;8.20;99.90
981;DHT22;479;53.514;9.994;2023-11-21T09:16:43;8.20;99.90
981;DHT22;479;53.514;9.994;2023-11-21T09:19:15;8.20;99.90
981;DHT22;479;53.514;9.994;2023-11-21T09:21:42;8.20;99.90
981;DHT22;479;53.514;9.994;2023-11-21T09:24:09;8.20;99.90
981;DHT22;479;53.514;9.994;2023-11-21T09:26:37;8.20;99.90
981;DHT22;479;53.514;9.994;2023-11-21T09:29:03;8.30;99.90
981;DHT22;479;53.514;9.994;2023-11-21T09:31:31;8.30;99.90
981;DHT22;479;53.514;9.994;2023-11-21T09:33:59;8.20;99.90
981;DHT22;479;53.514;9.994;2023-11-21T09:36:30;8.20;99.90
981;DHT22;479;53.514;9.994;2023-11-21T09:38:59;8.20;99.90
981;DHT22;479;53.514;9.994;2023-11-21T09:41:37;8.20;99.90
981;DHT22;479;53.514;9.994;2023-11-21T09:44:09;8.20;99.90
981;DHT22;479;53.514;9.994;2023-11-21T09:46:41;8.30;99.90
981;DHT22;479;53.514;9.994;2023-11-21T09:49:09;8.30;99.90
981;DHT22;479;53.514;9.994;2023-11-21T09:51:42;8.30;99.90
981;DHT22;479;53.514;9.994;2023-11-21T09:54:10;8.30;99.90
981;DHT22;479;53.514;9.994;2023-11-21T09:56:37;8.30;99.90
981;DHT22;479;53.514;9.994;2023-11-21T09:59:05;8.30;99.90
981;DHT22;479;53.514;9.994;2023-11-21T10:01:36;8.40;99.90
981;DHT22;479;53.514;9.994;2023-11-21T10:04:05;8.50;99.90
981;DHT22;479;53.514;9.994;2023-11-21T10:06:40;8.50;99.90
981;DHT22;479;53.514;9.994;2023-11-21T10:09:09;8.50;99.90
981;DHT22;479;53.514;9.994;2023-11-21T10:11:40;8.50;99.90
981;DHT22;479;53.514;9.994;2023-11-21T10:14:08;8.50;99.90
981;DHT22;479;53.514;9.994;2023-11-21T10:16:39;8.50;99.90
981;DHT22;479;53.514;9.994;2023-11-21T10:19:10;8.40;99.90
981;DHT22;479;53.514;9.994;2023-11-21T10:21:40;8.40;99.90
981;DHT22;479;53.514;9.994;2023-11-21T10:24:07;8.40;99.90
981;DHT22;479;53.514;9.994;2023-11-21T10:26:34;8.40;99.90
981;DHT22;479;53.514;9.994;2023-11-21T10:29:03;8.50;99.90
981;DHT22;479;53.514;9.994;2023-11-21T10:31:30;8.50;99.90
981;DHT22;479;53.514;9.994;2023-11-21T10:34:13;8.70;99.90
981;DHT22;479;53.514;9.994;2023-11-21T10:36:41;8.70;99.90
981;DHT22;479;53.514;9.994;2023-11-21T10:39:09;8.80;99.90
981;DHT22;479;53.514;9.994;2023-11-21T10:41:36;8.80;99.90
981;DHT22;479;53.514;9.994;2023-11-21T10:44:05;8.80;99.90
981;DHT22;479;53.514;9.994;2023-11-21T10:46:35;8.80;99.90
981;DHT22;479;53.514;9.994;2023-11-21T10:49:01;8.80;99.90
981;DHT22;479;53.514;9.994;2023-11-21T10:51:30;8.80;99.90
981;DHT22;479;53.514;9.994;2023-11-21T10:53:59;8.70;99.90
981;DHT22;479;53.514;9.994;2023-11-21T10:56:26;8.70;99.90
981;DHT22;479;53.514;9.994;2023-11-21T10:58:56;8.80;99.90
981;DHT22;479;53.514;9.994;2023-11-21T11:01:26;8.90;99.90
981;DHT22;479;53.514;9.994;2023-11-21T11:03:55;8.80;99.90
981;DHT22;479;53.514;9.994;2023-11-21T11:06:24;8.70;99.90
981;DHT22;479;53.514;9.994;2023-11-21T11:08:53;8.60;99.90
981;DHT22;479;53.514;9.994;2023-11-21T11:11:22;8.60;99.90
981;DHT22;479;53.514;9.994;2023-11-21T11:13:49;8.50;99.90
981;DHT22;479;53.514;9.994;2023-11-21T11:16:16;8.50;99.90
981;DHT22;479;53.514;9.994;2023-11-21T11:18:43;8.30;99.90
981;DHT22;479;53.514;9.994;2023-11-21T11:21:22;8.30;99.90
981;DHT22;479;53.514;9.994;2023-11-21T11:24:05;8.30;99.90
981;DHT22;479;53.514;9.994;2023-11-21T11:26:41;8.30;99.90
981;DHT22;479;53.514;9.994;2023-11-21T11:29:17;8.30;99.90
981;DHT22;479;53.514;9.994;2023-11-21T11:31:58;8.40;99.90
981;DHT22;479;53.514;9.994;2023-11-21T11:34:32;8.40;99.90
981;DHT22;479;53.514;9.994;2023-11-21T11:37:02;8.50;99.90
981;DHT22;479;53.514;9.994;2023-11-21T11:39:30;8.40;99.90
981;DHT22;479;53.514;9.994;2023-11-21T11:42:01;8.50;99.90
981;DHT22;479;53.514;9.994;2023-11-21T11:44:50;8.50;99.90
981;DHT22;479;53.514;9.994;2023-11-21T11:47:23;8.60;99.90
981;DHT22;479;53.514;9.994;2023-11-21T11:50:03;8.60;99.90
981;DHT22;479;53.514;9.994;2023-11-21T11:52:35;8.70;99.90
981;DHT22;479;53.514;9.994;2023-11-21T11:55:03;8.70;99.90
981;DHT22;479;53.514;9.994;2023-11-21T11:57:33;8.70;99.90
981;DHT22;479;53.514;9.994;2023-11-21T12:00:11;8.70;99.90
981;DHT22;479;53.514;9.994;2023-11-21T12:02:42;8.80;99.90
981;DHT22;479;53.514;9.994;2023-11-21T12:05:15;8.70;99.90
981;DHT22;479;53.514;9.994;2023-11-21T12:07:49;8.80;99.90
981;DHT22;479;53.514;9.994;2023-11-21T12:10:20;8.70;99.90
981;DHT22;479;53.514;9.994;2023-11-21T12:12:50;8.70;99.90
981;DHT22;479;53.514;9.994;2023-11-21T12:15:18;8.90;99.90
981;DHT22;479;53.514;9.994;2023-11-21T12:17:46;8.90;99.90
981;DHT22;479;53.514;9.994;2023-11-21T12:20:13;8.90;99.90
981;DHT22;479;53.514;9.994;2023-11-21T12:22:44;8.80;99.90
981;DHT22;479;53.514;9.994;2023-11-21T12:25:14;8.80;99.90
981;DHT22;479;53.514;9.994;2023-11-21T12:27:44;8.70;99.90
981;DHT22;479;53.514;9.994;2023-11-21T12:30:13;8.50;99.90
981;DHT22;479;53.514;9.994;2023-11-21T12:32:42;8.50;99.90
981;DHT22;479;53.514;9.994;2023-11-21T12:35:09;8.40;99.90
981;DHT22;479;53.514;9.994;2023-11-21T12:37:36;8.30;99.90
981;DHT22;479;53.514;9.994;2023-11-21T12:40:05;8.30;99.90
981;DHT22;479;53.514;9.994;2023-11-21T12:42:33;8.20;99.90
981;DHT22;479;53.514;9.994;2023-11-21T12:45:18;8.10;99.90
981;DHT22;479;53.514;9.994;2023-11-21T12:47:48;8.10;99.90
981;DHT22;479;53.514;9.994;2023-11-21T12:50:19;8.10;99.90
981;DHT22;479;53.514;9.994;2023-11-21T12:52:50;8.10;99.90
981;DHT22;479;53.514;9.994;2023-11-21T12:55:18;8.00;99.90
981;DHT22;479;53.514;9.994;2023-11-21T12:57:45;8.00;99.90
981;DHT22;479;53.514;9.994;2023-11-21T13:00:13;8.10;99.90
981;DHT22;479;53.514;9.994;2023-11-21T13:02:54;8.10;99.90
981;DHT22;479;53.514;9.994;2023-11-21T13:05:27;8.10;99.90
981;DHT22;479;53.514;9.994;2023-11-21T13:07:55;8.10;99.90
981;DHT22;479;53.514;9.994;2023-11-21T13:10:24;8.10;99.90
981;DHT22;479;53.514;9.994;2023-11-21T13:12:56;7.90;99.90
981;DHT22;479;53.514;9.994;2023-11-21T13:15:26;8.00;99.90
981;DHT22;479;53.514;9.994;2023-11-21T13:17:55;8.00;99.90
981;DHT22;479;53.514;9.994;2023-11-21T13:20:23;7.90;99.90
981;DHT22;479;53.514;9.994;2023-11-21T13:22:52;7.90;99.90
981;DHT22;479;53.514;9.994;2023-11-21T13:25:20;7.90;99.90
981;DHT22;479;53.514;9.994;2023-11-21T13:27:47;7.90;99.90
981;DHT22;479;53.514;9.994;2023-11-21T13:30:15;7.80;99.90
981;DHT22;479;53.514;9.994;2023-11-21T13:32:43;7.80;99.90
981;DHT22;479;53.514;9.994;2023-11-21T13:35:13;7.90;99.90
981;DHT22;479;53.514;9.994;2023-11-21T13:37:50;7.70;99.90
981;DHT22;479;53.514;9.994;2023-11-21T13:40:22;7.70;99.90
981;DHT22;479;53.514;9.994;2023-11-21T13:42:52;7.80;99.90
981;DHT22;479;53.514;9.994;2023-11-21T13:45:23;7.70;99.90
981;DHT22;479;53.514;9.994;2023-11-21T13:47:52;7.70;99.90
981;DHT22;479;53.514;9.994;2023-11-21T13:50:24;7.70;99.90
981;DHT22;479;53.514;9.994;2023-11-21T13:52:56;7.70;99.90
981;DHT22;479;53.514;9.994;2023-11-21T13:55:23;7.60;99.90
981;DHT22;479;53.514;9.994;2023-11-21T13:57:51;7.70;99.90
981;DHT22;479;53.514;9.994;2023-11-21T14:00:18;7.70;99.90
981;DHT22;479;53.514;9.994;2023-11-21T14:03:07;7.70;99.90
981;DHT22;479;53.514;9.994;2023-11-21T14:05:44;7.70;99.90
981;DHT22;479;53.514;9.994;2023-11-21T14:08:13;7.80;99.90
981;DHT22;479;53.514;9.994;2023-11-21T14:10:42;7.70;99.90
981;DHT22;479;53.514;9.994;2023-11-21T14:13:10;7.70;99.90
981;DHT22;479;53.514;9.994;2023-11-21T14:15:39;7.70;99.90
981;DHT22;479;53.514;9.994;2023-11-21T14:18:07;7.70;99.90
981;DHT22;479;53.514;9.994;2023-11-21T14:20:36;7.60;99.90
981;DHT22;479;53.514;9.994;2023-11-21T14:23:04;7.60;99.90
981;DHT22;479;53.514;9.994;2023-11-21T14:25:32;7.50;99.90
981;DHT22;479;53.514;9.994;2023-11-21T14:27:59;7.50;99.90
981;DHT22;479;53.514;9.994;2023-11-21T14:30:28;7.50;99.90
981;DHT22;479;53.514;9.994;2023-11-21T14:32:57;7.50;99.90
981;DHT22;479;53.514;9.994;2023-11-21T14:35:24;7.50;99.90
981;DHT22;479;53.514;9.994;2023-11-21T14:37:52;7.40;99.90
981;DHT22;479;53.514;9.994;2023-11-21T14:40:20;7.40;99.90
981;DHT22;479;53.514;9.994;2023-11-21T14:42:50;7.30;99.90
981;DHT22;479;53.514;9.994;2023-11-21T14:45:18;7.30;99.90
981;DHT22;479;53.514;9.994;2023-11-21T14:47:46;7.30;99.90
981;DHT22;479;53.514;9.994;2023-11-21T14:50:23;7.30;99.90
981;DHT22;479;53.514;9.994;2023-11-21T14:53:12;7.30;99.90
981;DHT22;479;53.514;9.994;2023-11-21T14:55:41;7.20;99.90
981;DHT22;479;53.514;9.994;2023-11-21T14:58:21;7.20;99.90
981;DHT22;479;53.514;9.994;2023-11-21T15:00:53;7.20;99.90
981;DHT22;479;53.514;9.994;2023-11-21T15:03:24;7.20;99.90
981;DHT22;479;53.514;9.994;2023-11-21T15:06:09;7.20;99.90
981;DHT22;479;53.514;9.994;2023-11-21T15:08:49;7.20;99.90
981;DHT22;479;53.514;9.994;2023-11-21T15:11:24;7.20;99.90
981;DHT22;479;53.514;9.994;2023-11-21T15:13:56;7.20;99.90
981;DHT22;479;53.514;9.994;2023-11-21T15:16:23;7.20;99.90
981;DHT22;479;53.514;9.994;2023-11-21T15:18:51;7.20;99.90
981;DHT22;479;53.514;9.994;2023-11-21T15:21:20;7.20;99.90
981;DHT22;479;53.514;9.994;2023-11-21T15:23:51;7.20;99.90
981;DHT22;479;53.514;9.994;2023-11-21T15:26:18;7.10;99.90
981;DHT22;479;53.514;9.994;2023-11-21T15:28:46;7.00;99.90
981;DHT22;479;53.514;9.994;2023-11-21T15:31:13;7.00;99.90
981;DHT22;479;53.514;9.994;2023-11-21T15:33:42;6.90;99.90
981;DHT22;479;53.514;9.994;2023-11-21T15:36:09;6.80;99.90
981;DHT22;479;53.514;9.994;2023-11-21T15:38:36;6.70;99.90
981;DHT22;479;53.514;9.994;2023-11-21T15:41:05;6.70;99.90
981;DHT22;479;53.514;9.994;2023-11-21T15:43:34;6.70;99.90
981;DHT22;479;53.514;9.994;2023-11-21T15:46:02;6.70;99.90
981;DHT22;479;53.514;9.994;2023-11-21T15:48:34;6.70;99.90
981;DHT22;479;53.514;9.994;2023-11-21T15:51:01;6.70;99.90
981;DHT22;479;53.514;9.994;2023-11-21T15:53:30;6.70;99.90
981;DHT22;479;53.514;9.994;2023-11-21T15:55:57;6.70;99.90
981;DHT22;479;53.514;9.994;2023-11-21T15:58:24;6.70;99.90
981;DHT22;479;53.514;9.994;2023-11-21T16:00:52;6.80;99.90
981;DHT22;479;53.514;9.994;2023-11-21T16:03:21;6.70;99.90
981;DHT22;479;53.514;9.994;2023-11-21T16:05:49;6.70;99.90
981;DHT22;479;53.514;9.994;2023-11-21T16:08:19;6.80;99.90
981;DHT22;479;53.514;9.994;2023-11-21T16:10:46;6.80;99.90
981;DHT22;479;53.514;9.994;2023-11-21T16:13:12;6.90;99.90
981;DHT22;479;53.514;9.994;2023-11-21T16:15:39;6.80;99.90
981;DHT22;479;53.514;9.994;2023-11-21T16:18:08;6.80;99.90
981;DHT22;479;53.514;9.994;2023-11-21T16:20:36;6.80;99.90
981;DHT22;479;53.514;9.994;2023-11-21T16:23:03;6.70;99.90
981;DHT22;479;53.514;9.994;2023-11-21T16:25:30;6.80;99.90
981;DHT22;479;53.514;9.994;2023-11-21T16:27:57;6.70;99.90
981;DHT22;479;53.514;9.994;2023-11-21T16:30:29;6.70;99.90
981;DHT22;479;53.514;9.994;2023-11-21T16:32:59;6.70;99.90
981;DHT22;479;53.514;9.994;2023-11-21T16:35:26;6.70;99.90
981;DHT22;479;53.514;9.994;2023-11-21T16:37:54;6.70;99.90
981;DHT22;479;53.514;9.994;2023-11-21T16:40:21;6.70;99.90
981;DHT22;479;53.514;9.994;2023-11-21T16:42:48;6.70;99.90
981;DHT22;479;53.514;9.994;2023-11-21T16:45:15;6.70;99.90
981;DHT22;479;53.514;9.994;2023-11-21T16:47:42;6.70;99.90
981;DHT22;479;53.514;9.994;2023-11-21T16:50:09;6.70;99.90
981;DHT22;479;53.514;9.994;2023-11-21T16:52:39;6.80;99.90
981;DHT22;479;53.514;9.994;2023-11-21T16:55:08;6.80;99.90
981;DHT22;479;53.514;9.994;2023-11-21T16:57:36;6.80;99.90
981;DHT22;479;53.514;9.994;2023-11-21T17:00:05;6.80;99.90
981;DHT22;479;53.514;9.994;2023-11-21T17:02:33;6.90;99.90
981;DHT22;479;53.514;9.994;2023-11-21T17:05:00;6.80;99.90